sensor_id;sensor_type;location;lat;lon;timestamp;P1;durP1;ratioP1;P2;durP2;ratioP2
3443;SDS011;1736;52.068;6.968;2023-01-28T00:00:07;17.23;;;9.93;;
3443;SDS011;1736;52.068;6.968;2023-01-28T00:02:35;21.80;;;11.60;;
3443;SDS011;1736;52.068;6.968;2023-01-28T00:05:03;20.00;;;10.37;;
3443;SDS011;1736;52.068;6.968;2023-01-28T00:07:31;18.13;;;9.80;;
3443;SDS011;1736;52.068;6.968;2023-01-28T00:09:57;16.60;;;10.50;;
3443;SDS011;1736;52.068;6.968;2023-01-28T00:12:24;15.80;;;9.50;;
3443;SDS011;1736;52.068;6.968;2023-01-28T00:14:51;16.93;;;10.20;;
3443;SDS011;1736;52.068;6.968;2023-01-28T00:17:17;17.50;;;9.63;;
3443;SDS011;1736;52.068;6.968;2023-01-28T00:19:44;16.60;;;9.97;;
3443;SDS011;1736;52.068;6.968;2023-01-28T00:22:12;17.47;;;10.73;;
3443;SDS011;1736;52.068;6.968;2023-01-28T00:24:39;15.30;;;9.87;;
3443;SDS011;1736;52.068;6.968;2023-01-28T00:27:06;15.70;;;9.60;;
3443;SDS011;1736;52.068;6.968;2023-01-28T00:29:32;14.00;;;9.60;;
3443;SDS011;1736;52.068;6.968;2023-01-28T00:31:59;16.07;;;10.50;;
3443;SDS011;1736;52.068;6.968;2023-01-28T00:34:25;22.50;;;11.83;;
3443;SDS011;1736;52.068;6.968;2023-01-28T00:36:52;21.63;;;12.30;;
3443;SDS011;1736;52.068;6.968;2023-01-28T00:39:23;17.63;;;10.10;;
3443;SDS011;1736;52.068;6.968;2023-01-28T00:41:51;16.50;;;9.90;;
3443;SDS011;1736;52.068;6.968;2023-01-28T00:44:18;16.53;;;10.50;;
3443;SDS011;1736;52.068;6.968;2023-01-28T00:46:45;16.47;;;9.40;;
3443;SDS011;1736;52.068;6.968;2023-01-28T00:49:12;15.47;;;9.50;;
3443;SDS011;1736;52.068;6.968;2023-01-28T00:51:39;15.33;;;9.03;;
3443;SDS011;1736;52.068;6.968;2023-01-28T00:54:05;16.43;;;9.00;;
3443;SDS011;1736;52.068;6.968;2023-01-28T00:56:33;17.17;;;10.30;;
3443;SDS011;1736;52.068;6.968;2023-01-28T00:59:00;22.10;;;10.23;;
3443;SDS011;1736;52.068;6.968;2023-01-28T01:01:27;17.73;;;10.10;;
3443;SDS011;1736;52.068;6.968;2023-01-28T01:03:54;17.83;;;10.73;;
3443;SDS011;1736;52.068;6.968;2023-01-28T01:06:26;15.93;;;9.60;;
3443;SDS011;1736;52.068;6.968;2023-01-28T01:08:54;16.97;;;9.17;;
3443;SDS011;1736;52.068;6.968;2023-01-28T01:11:20;15.67;;;9.90;;
3443;SDS011;1736;52.068;6.968;2023-01-28T01:13:52;15.30;;;9.63;;
3443;SDS011;1736;52.068;6.968;2023-01-28T01:16:21;17.80;;;10.40;;
3443;SDS011;1736;52.068;6.968;2023-01-28T01:18:49;17.13;;;10.30;;
3443;SDS011;1736;52.068;6.968;2023-01-28T01:21:17;16.60;;;10.90;;
3443;SDS011;1736;52.068;6.968;2023-01-28T01:23:45;16.47;;;10.10;;
3443;SDS011;1736;52.068;6.968;2023-01-28T01:26:12;16.27;;;10.30;;
3443;SDS011;1736;52.068;6.968;2023-01-28T01:28:39;16.63;;;9.90;;
3443;SDS011;1736;52.068;6.968;2023-01-28T01:31:09;17.50;;;10.43;;
3443;SDS011;1736;52.068;6.968;2023-01-28T01:33:38;16.03;;;10.00;;
3443;SDS011;1736;52.068;6.968;2023-01-28T01:36:06;13.80;;;9.10;;
3443;SDS011;1736;52.068;6.968;2023-01-28T01:38:34;19.30;;;11.23;;
3443;SDS011;1736;52.068;6.968;2023-01-28T01:41:01;28.10;;;9.70;;
3443;SDS011;1736;52.068;6.968;2023-01-28T01:43:45;14.83;;;9.33;;
3443;SDS011;1736;52.068;6.968;2023-01-28T01:46:15;14.23;;;9.90;;
3443;SDS011;1736;52.068;6.968;2023-01-28T01:48:45;14.67;;;9.83;;
3443;SDS011;1736;52.068;6.968;2023-01-28T01:51:14;13.43;;;8.83;;
3443;SDS011;1736;52.068;6.968;2023-01-28T01:53:44;13.50;;;9.03;;
3443;SDS011;1736;52.068;6.968;2023-01-28T01:56:13;14.83;;;9.77;;
3443;SDS011;1736;52.068;6.968;2023-01-28T01:58:43;15.63;;;9.40;;
3443;SDS011;1736;52.068;6.968;2023-01-28T02:01:16;16.40;;;9.37;;
3443;SDS011;1736;52.068;6.968;2023-01-28T02:03:47;16.00;;;9.67;;
3443;SDS011;1736;52.068;6.968;2023-01-28T02:06:19;16.30;;;9.20;;
3443;SDS011;1736;52.068;6.968;2023-01-28T02:08:47;14.80;;;8.80;;
3443;SDS011;1736;52.068;6.968;2023-01-28T02:11:14;13.90;;;8.97;;
3443;SDS011;1736;52.068;6.968;2023-01-28T02:13:42;12.97;;;8.70;;
3443;SDS011;1736;52.068;6.968;2023-01-28T02:16:14;14.13;;;8.80;;
3443;SDS011;1736;52.068;6.968;2023-01-28T02:18:42;11.47;;;8.20;;
3443;SDS011;1736;52.068;6.968;2023-01-28T02:21:17;13.57;;;9.00;;
3443;SDS011;1736;52.068;6.968;2023-01-28T02:24:06;14.70;;;8.93;;
3443;SDS011;1736;52.068;6.968;2023-01-28T02:26:55;13.37;;;8.50;;
3443;SDS011;1736;52.068;6.968;2023-01-28T02:29:34;12.67;;;8.97;;
3443;SDS011;1736;52.068;6.968;2023-01-28T02:32:09;12.10;;;8.13;;
3443;SDS011;1736;52.068;6.968;2023-01-28T02:34:44;14.20;;;9.50;;
3443;SDS011;1736;52.068;6.968;2023-01-28T02:37:15;14.40;;;8.73;;
3443;SDS011;1736;52.068;6.968;2023-01-28T02:39:46;12.73;;;8.40;;
3443;SDS011;1736;52.068;6.968;2023-01-28T02:42:16;14.30;;;9.60;;
3443;SDS011;1736;52.068;6.968;2023-01-28T02:44:47;12.03;;;8.97;;
3443;SDS011;1736;52.068;6.968;2023-01-28T02:47:14;14.20;;;8.50;;
3443;SDS011;1736;52.068;6.968;2023-01-28T02:50:00;13.40;;;8.00;;
3443;SDS011;1736;52.068;6.968;2023-01-28T02:52:31;12.00;;;7.90;;
3443;SDS011;1736;52.068;6.968;2023-01-28T02:55:30;14.73;;;8.77;;
3443;SDS011;1736;52.068;6.968;2023-01-28T02:58:05;13.63;;;8.83;;
3443;SDS011;1736;52.068;6.968;2023-01-28T03:00:42;12.70;;;8.60;;
3443;SDS011;1736;52.068;6.968;2023-01-28T03:03:15;19.50;;;9.50;;
3443;SDS011;1736;52.068;6.968;2023-01-28T03:05:48;14.13;;;9.13;;
3443;SDS011;1736;52.068;6.968;2023-01-28T03:08:31;16.23;;;9.53;;
3443;SDS011;1736;52.068;6.968;2023-01-28T03:11:18;16.60;;;10.17;;
3443;SDS011;1736;52.068;6.968;2023-01-28T03:14:02;18.67;;;10.60;;
3443;SDS011;1736;52.068;6.968;2023-01-28T03:16:49;15.87;;;9.87;;
3443;SDS011;1736;52.068;6.968;2023-01-28T03:19:34;16.43;;;10.07;;
3443;SDS011;1736;52.068;6.968;2023-01-28T03:22:19;17.20;;;10.17;;
3443;SDS011;1736;52.068;6.968;2023-01-28T03:25:05;18.57;;;10.43;;
3443;SDS011;1736;52.068;6.968;2023-01-28T03:27:52;19.00;;;10.73;;
3443;SDS011;1736;52.068;6.968;2023-01-28T03:30:40;16.87;;;10.50;;
3443;SDS011;1736;52.068;6.968;2023-01-28T03:33:28;19.57;;;10.53;;
3443;SDS011;1736;52.068;6.968;2023-01-28T03:36:14;17.67;;;11.03;;
3443;SDS011;1736;52.068;6.968;2023-01-28T03:38:59;17.27;;;10.27;;
3443;SDS011;1736;52.068;6.968;2023-01-28T03:41:26;17.37;;;10.30;;
3443;SDS011;1736;52.068;6.968;2023-01-28T03:43:52;17.57;;;10.90;;
3443;SDS011;1736;52.068;6.968;2023-01-28T03:46:20;18.97;;;11.57;;
3443;SDS011;1736;52.068;6.968;2023-01-28T03:48:48;17.67;;;10.43;;
3443;SDS011;1736;52.068;6.968;2023-01-28T03:51:15;17.40;;;10.90;;
3443;SDS011;1736;52.068;6.968;2023-01-28T03:53:41;19.27;;;10.70;;
3443;SDS011;1736;52.068;6.968;2023-01-28T03:56:08;19.67;;;10.70;;
3443;SDS011;1736;52.068;6.968;2023-01-28T03:58:42;18.80;;;11.47;;
3443;SDS011;1736;52.068;6.968;2023-01-28T04:01:17;19.03;;;11.37;;
3443;SDS011;1736;52.068;6.968;2023-01-28T04:03:44;20.10;;;10.43;;
3443;SDS011;1736;52.068;6.968;2023-01-28T04:06:12;19.93;;;11.13;;
3443;SDS011;1736;52.068;6.968;2023-01-28T04:08:39;18.77;;;10.53;;
3443;SDS011;1736;52.068;6.968;2023-01-28T04:11:16;17.67;;;10.53;;
3443;SDS011;1736;52.068;6.968;2023-01-28T04:13:43;18.20;;;11.03;;
3443;SDS011;1736;52.068;6.968;2023-01-28T04:16:10;17.10;;;10.83;;
3443;SDS011;1736;52.068;6.968;2023-01-28T04:18:37;19.27;;;11.53;;
3443;SDS011;1736;52.068;6.968;2023-01-28T04:21:04;17.00;;;10.63;;
3443;SDS011;1736;52.068;6.968;2023-01-28T04:23:32;18.33;;;10.33;;
3443;SDS011;1736;52.068;6.968;2023-01-28T04:25:59;16.53;;;10.17;;
3443;SDS011;1736;52.068;6.968;2023-01-28T04:28:25;16.47;;;9.47;;
3443;SDS011;1736;52.068;6.968;2023-01-28T04:30:52;16.73;;;10.57;;
3443;SDS011;1736;52.068;6.968;2023-01-28T04:33:18;17.50;;;9.53;;
3443;SDS011;1736;52.068;6.968;2023-01-28T04:35:45;17.47;;;10.47;;
3443;SDS011;1736;52.068;6.968;2023-01-28T04:38:11;16.63;;;9.90;;
3443;SDS011;1736;52.068;6.968;2023-01-28T04:40:39;17.50;;;10.03;;
3443;SDS011;1736;52.068;6.968;2023-01-28T04:43:06;18.00;;;9.90;;
3443;SDS011;1736;52.068;6.968;2023-01-28T04:45:34;16.80;;;10.30;;
3443;SDS011;1736;52.068;6.968;2023-01-28T04:48:00;15.50;;;9.47;;
3443;SDS011;1736;52.068;6.968;2023-01-28T04:50:27;17.63;;;11.07;;
3443;SDS011;1736;52.068;6.968;2023-01-28T04:52:53;17.80;;;10.80;;
3443;SDS011;1736;52.068;6.968;2023-01-28T04:55:20;16.17;;;9.53;;
3443;SDS011;1736;52.068;6.968;2023-01-28T04:57:48;15.53;;;10.40;;
3443;SDS011;1736;52.068;6.968;2023-01-28T05:00:14;20.80;;;11.40;;
3443;SDS011;1736;52.068;6.968;2023-01-28T05:02:42;19.77;;;11.70;;
3443;SDS011;1736;52.068;6.968;2023-01-28T05:05:08;16.40;;;10.33;;
3443;SDS011;1736;52.068;6.968;2023-01-28T05:07:35;17.77;;;10.53;;
3443;SDS011;1736;52.068;6.968;2023-01-28T05:10:02;19.80;;;11.50;;
3443;SDS011;1736;52.068;6.968;2023-01-28T05:12:29;17.70;;;10.67;;
3443;SDS011;1736;52.068;6.968;2023-01-28T05:14:58;21.70;;;12.03;;
3443;SDS011;1736;52.068;6.968;2023-01-28T05:17:25;23.37;;;12.83;;
3443;SDS011;1736;52.068;6.968;2023-01-28T05:19:52;23.20;;;12.37;;
3443;SDS011;1736;52.068;6.968;2023-01-28T05:22:18;21.07;;;12.60;;
3443;SDS011;1736;52.068;6.968;2023-01-28T05:24:45;20.20;;;11.37;;
3443;SDS011;1736;52.068;6.968;2023-01-28T05:27:12;18.37;;;10.40;;
3443;SDS011;1736;52.068;6.968;2023-01-28T05:29:38;17.90;;;11.33;;
3443;SDS011;1736;52.068;6.968;2023-01-28T05:32:06;20.53;;;11.73;;
3443;SDS011;1736;52.068;6.968;2023-01-28T05:34:33;15.13;;;9.90;;
3443;SDS011;1736;52.068;6.968;2023-01-28T05:36:59;17.43;;;10.63;;
3443;SDS011;1736;52.068;6.968;2023-01-28T05:39:26;19.60;;;11.10;;
3443;SDS011;1736;52.068;6.968;2023-01-28T05:41:52;21.87;;;10.70;;
3443;SDS011;1736;52.068;6.968;2023-01-28T05:44:19;18.90;;;10.90;;
3443;SDS011;1736;52.068;6.968;2023-01-28T05:46:45;18.80;;;10.80;;
3443;SDS011;1736;52.068;6.968;2023-01-28T05:49:13;18.27;;;11.03;;
3443;SDS011;1736;52.068;6.968;2023-01-28T05:51:40;17.33;;;10.90;;
3443;SDS011;1736;52.068;6.968;2023-01-28T05:54:08;19.20;;;11.43;;
3443;SDS011;1736;52.068;6.968;2023-01-28T05:56:34;20.97;;;12.30;;
3443;SDS011;1736;52.068;6.968;2023-01-28T05:59:01;16.30;;;10.93;;
3443;SDS011;1736;52.068;6.968;2023-01-28T06:01:28;18.67;;;10.30;;
3443;SDS011;1736;52.068;6.968;2023-01-28T06:03:54;16.40;;;10.00;;
3443;SDS011;1736;52.068;6.968;2023-01-28T06:06:22;19.17;;;11.07;;
3443;SDS011;1736;52.068;6.968;2023-01-28T06:08:49;20.80;;;12.20;;
3443;SDS011;1736;52.068;6.968;2023-01-28T06:11:15;20.73;;;10.93;;
3443;SDS011;1736;52.068;6.968;2023-01-28T06:13:42;19.37;;;10.47;;
3443;SDS011;1736;52.068;6.968;2023-01-28T06:16:08;18.60;;;12.30;;
3443;SDS011;1736;52.068;6.968;2023-01-28T06:18:35;15.97;;;9.70;;
3443;SDS011;1736;52.068;6.968;2023-01-28T06:21:02;22.17;;;11.90;;
3443;SDS011;1736;52.068;6.968;2023-01-28T06:23:30;18.60;;;11.13;;
3443;SDS011;1736;52.068;6.968;2023-01-28T06:25:57;16.40;;;10.30;;
3443;SDS011;1736;52.068;6.968;2023-01-28T06:28:24;19.47;;;10.10;;
3443;SDS011;1736;52.068;6.968;2023-01-28T06:30:51;18.60;;;9.90;;
3443;SDS011;1736;52.068;6.968;2023-01-28T06:33:18;16.13;;;10.10;;
3443;SDS011;1736;52.068;6.968;2023-01-28T06:35:45;19.83;;;11.47;;
3443;SDS011;1736;52.068;6.968;2023-01-28T06:38:12;16.83;;;10.50;;
3443;SDS011;1736;52.068;6.968;2023-01-28T06:40:40;16.73;;;10.27;;
3443;SDS011;1736;52.068;6.968;2023-01-28T06:43:07;17.13;;;10.37;;
3443;SDS011;1736;52.068;6.968;2023-01-28T06:45:33;20.20;;;11.50;;
3443;SDS011;1736;52.068;6.968;2023-01-28T06:48:00;15.80;;;10.20;;
3443;SDS011;1736;52.068;6.968;2023-01-28T06:50:26;17.03;;;10.77;;
3443;SDS011;1736;52.068;6.968;2023-01-28T06:52:53;16.60;;;9.80;;
3443;SDS011;1736;52.068;6.968;2023-01-28T06:55:19;16.60;;;10.50;;
3443;SDS011;1736;52.068;6.968;2023-01-28T06:57:47;16.57;;;10.57;;
3443;SDS011;1736;52.068;6.968;2023-01-28T07:00:14;21.60;;;11.43;;
3443;SDS011;1736;52.068;6.968;2023-01-28T07:02:41;18.30;;;11.13;;
3443;SDS011;1736;52.068;6.968;2023-01-28T07:05:08;17.47;;;10.53;;
3443;SDS011;1736;52.068;6.968;2023-01-28T07:07:35;18.40;;;10.90;;
3443;SDS011;1736;52.068;6.968;2023-01-28T07:10:02;19.10;;;11.43;;
3443;SDS011;1736;52.068;6.968;2023-01-28T07:12:29;19.10;;;11.57;;
3443;SDS011;1736;52.068;6.968;2023-01-28T07:14:57;22.20;;;12.50;;
3443;SDS011;1736;52.068;6.968;2023-01-28T07:17:24;19.43;;;11.57;;
3443;SDS011;1736;52.068;6.968;2023-01-28T07:19:50;19.60;;;11.77;;
3443;SDS011;1736;52.068;6.968;2023-01-28T07:22:17;18.60;;;10.80;;
3443;SDS011;1736;52.068;6.968;2023-01-28T07:24:43;19.97;;;11.67;;
3443;SDS011;1736;52.068;6.968;2023-01-28T07:27:10;18.43;;;11.30;;
3443;SDS011;1736;52.068;6.968;2023-01-28T07:29:37;22.57;;;11.40;;
3443;SDS011;1736;52.068;6.968;2023-01-28T07:32:05;18.90;;;10.63;;
3443;SDS011;1736;52.068;6.968;2023-01-28T07:34:31;21.60;;;11.50;;
3443;SDS011;1736;52.068;6.968;2023-01-28T07:37:01;19.40;;;11.00;;
3443;SDS011;1736;52.068;6.968;2023-01-28T07:39:28;19.70;;;10.93;;
3443;SDS011;1736;52.068;6.968;2023-01-28T07:41:54;17.97;;;11.07;;
3443;SDS011;1736;52.068;6.968;2023-01-28T07:44:21;20.83;;;11.10;;
3443;SDS011;1736;52.068;6.968;2023-01-28T07:46:47;23.07;;;12.43;;
3443;SDS011;1736;52.068;6.968;2023-01-28T07:49:15;21.70;;;11.73;;
3443;SDS011;1736;52.068;6.968;2023-01-28T07:51:42;19.43;;;10.73;;
3443;SDS011;1736;52.068;6.968;2023-01-28T07:54:10;21.10;;;11.97;;
3443;SDS011;1736;52.068;6.968;2023-01-28T07:56:37;18.27;;;11.17;;
3443;SDS011;1736;52.068;6.968;2023-01-28T07:59:03;18.40;;;10.93;;
3443;SDS011;1736;52.068;6.968;2023-01-28T08:01:30;19.60;;;11.60;;
3443;SDS011;1736;52.068;6.968;2023-01-28T08:03:56;19.10;;;10.97;;
3443;SDS011;1736;52.068;6.968;2023-01-28T08:06:24;21.70;;;12.00;;
3443;SDS011;1736;52.068;6.968;2023-01-28T08:08:53;20.10;;;11.43;;
3443;SDS011;1736;52.068;6.968;2023-01-28T08:11:20;27.60;;;11.93;;
3443;SDS011;1736;52.068;6.968;2023-01-28T08:13:47;18.73;;;10.47;;
3443;SDS011;1736;52.068;6.968;2023-01-28T08:16:14;20.80;;;11.70;;
3443;SDS011;1736;52.068;6.968;2023-01-28T08:18:40;29.20;;;11.40;;
3443;SDS011;1736;52.068;6.968;2023-01-28T08:21:07;20.00;;;12.00;;
3443;SDS011;1736;52.068;6.968;2023-01-28T08:23:34;16.80;;;10.23;;
3443;SDS011;1736;52.068;6.968;2023-01-28T08:26:01;18.03;;;10.93;;
3443;SDS011;1736;52.068;6.968;2023-01-28T08:28:28;16.83;;;10.90;;
3443;SDS011;1736;52.068;6.968;2023-01-28T08:30:54;19.00;;;10.87;;
3443;SDS011;1736;52.068;6.968;2023-01-28T08:33:24;18.93;;;11.03;;
3443;SDS011;1736;52.068;6.968;2023-01-28T08:35:51;24.40;;;11.70;;
3443;SDS011;1736;52.068;6.968;2023-01-28T08:38:17;20.17;;;11.83;;
3443;SDS011;1736;52.068;6.968;2023-01-28T08:40:45;16.90;;;10.67;;
3443;SDS011;1736;52.068;6.968;2023-01-28T08:43:14;15.40;;;10.07;;
3443;SDS011;1736;52.068;6.968;2023-01-28T08:45:41;19.80;;;10.40;;
3443;SDS011;1736;52.068;6.968;2023-01-28T08:48:09;17.43;;;10.73;;
3443;SDS011;1736;52.068;6.968;2023-01-28T08:50:39;16.50;;;9.80;;
3443;SDS011;1736;52.068;6.968;2023-01-28T08:53:06;17.63;;;11.03;;
3443;SDS011;1736;52.068;6.968;2023-01-28T08:55:36;17.20;;;11.10;;
3443;SDS011;1736;52.068;6.968;2023-01-28T08:58:04;15.07;;;9.87;;
3443;SDS011;1736;52.068;6.968;2023-01-28T09:00:32;16.87;;;9.53;;
3443;SDS011;1736;52.068;6.968;2023-01-28T09:02:59;17.00;;;9.87;;
3443;SDS011;1736;52.068;6.968;2023-01-28T09:05:26;13.37;;;8.70;;
3443;SDS011;1736;52.068;6.968;2023-01-28T09:07:54;20.27;;;10.23;;
3443;SDS011;1736;52.068;6.968;2023-01-28T09:10:20;16.77;;;10.33;;
3443;SDS011;1736;52.068;6.968;2023-01-28T09:12:47;15.93;;;8.93;;
3443;SDS011;1736;52.068;6.968;2023-01-28T09:15:15;15.70;;;9.10;;
3443;SDS011;1736;52.068;6.968;2023-01-28T09:17:42;13.90;;;9.00;;
3443;SDS011;1736;52.068;6.968;2023-01-28T09:20:09;16.10;;;10.23;;
3443;SDS011;1736;52.068;6.968;2023-01-28T09:22:37;14.83;;;9.07;;
3443;SDS011;1736;52.068;6.968;2023-01-28T09:25:04;12.53;;;8.77;;
3443;SDS011;1736;52.068;6.968;2023-01-28T09:27:31;12.13;;;8.50;;
3443;SDS011;1736;52.068;6.968;2023-01-28T09:29:58;17.20;;;10.23;;
3443;SDS011;1736;52.068;6.968;2023-01-28T09:32:26;14.33;;;9.57;;
3443;SDS011;1736;52.068;6.968;2023-01-28T09:34:53;13.80;;;8.63;;
3443;SDS011;1736;52.068;6.968;2023-01-28T09:37:19;13.43;;;8.40;;
3443;SDS011;1736;52.068;6.968;2023-01-28T09:39:46;13.67;;;8.97;;
3443;SDS011;1736;52.068;6.968;2023-01-28T09:42:17;12.53;;;8.50;;
3443;SDS011;1736;52.068;6.968;2023-01-28T09:44:56;14.27;;;8.60;;
3443;SDS011;1736;52.068;6.968;2023-01-28T09:47:31;12.50;;;8.53;;
3443;SDS011;1736;52.068;6.968;2023-01-28T09:50:05;13.80;;;8.90;;
3443;SDS011;1736;52.068;6.968;2023-01-28T09:52:38;13.03;;;9.07;;
3443;SDS011;1736;52.068;6.968;2023-01-28T09:55:11;14.77;;;9.50;;
3443;SDS011;1736;52.068;6.968;2023-01-28T09:57:44;13.90;;;9.40;;
3443;SDS011;1736;52.068;6.968;2023-01-28T10:00:14;13.20;;;8.40;;
3443;SDS011;1736;52.068;6.968;2023-01-28T10:02:48;11.97;;;8.00;;
3443;SDS011;1736;52.068;6.968;2023-01-28T10:05:26;12.17;;;8.47;;
3443;SDS011;1736;52.068;6.968;2023-01-28T10:08:06;12.37;;;8.83;;
3443;SDS011;1736;52.068;6.968;2023-01-28T10:10:41;12.57;;;8.63;;
3443;SDS011;1736;52.068;6.968;2023-01-28T10:13:15;15.40;;;9.07;;
3443;SDS011;1736;52.068;6.968;2023-01-28T10:15:52;12.43;;;8.40;;
3443;SDS011;1736;52.068;6.968;2023-01-28T10:18:30;11.57;;;8.47;;
3443;SDS011;1736;52.068;6.968;2023-01-28T10:21:01;11.57;;;7.80;;
3443;SDS011;1736;52.068;6.968;2023-01-28T10:23:37;12.30;;;8.30;;
3443;SDS011;1736;52.068;6.968;2023-01-28T10:26:10;12.00;;;8.57;;
3443;SDS011;1736;52.068;6.968;2023-01-28T10:28:47;10.10;;;7.77;;
3443;SDS011;1736;52.068;6.968;2023-01-28T10:31:21;13.97;;;9.50;;
3443;SDS011;1736;52.068;6.968;2023-01-28T10:33:50;12.37;;;8.13;;
3443;SDS011;1736;52.068;6.968;2023-01-28T10:36:16;12.37;;;8.93;;
3443;SDS011;1736;52.068;6.968;2023-01-28T10:38:43;11.77;;;8.40;;
3443;SDS011;1736;52.068;6.968;2023-01-28T10:41:20;13.30;;;9.00;;
3443;SDS011;1736;52.068;6.968;2023-01-28T10:43:49;12.57;;;8.97;;
3443;SDS011;1736;52.068;6.968;2023-01-28T10:46:17;11.83;;;8.77;;
3443;SDS011;1736;52.068;6.968;2023-01-28T10:48:47;10.30;;;7.80;;
3443;SDS011;1736;52.068;6.968;2023-01-28T10:51:29;10.27;;;7.53;;
3443;SDS011;1736;52.068;6.968;2023-01-28T10:53:57;10.90;;;8.07;;
3443;SDS011;1736;52.068;6.968;2023-01-28T10:56:24;14.30;;;8.73;;
3443;SDS011;1736;52.068;6.968;2023-01-28T10:58:56;13.03;;;9.00;;
3443;SDS011;1736;52.068;6.968;2023-01-28T11:01:25;11.87;;;8.07;;
3443;SDS011;1736;52.068;6.968;2023-01-28T11:04:05;12.63;;;9.00;;
3443;SDS011;1736;52.068;6.968;2023-01-28T11:06:40;11.90;;;7.90;;
3443;SDS011;1736;52.068;6.968;2023-01-28T11:09:18;12.20;;;8.50;;
3443;SDS011;1736;52.068;6.968;2023-01-28T11:11:46;10.70;;;7.83;;
3443;SDS011;1736;52.068;6.968;2023-01-28T11:14:18;10.63;;;8.00;;
3443;SDS011;1736;52.068;6.968;2023-01-28T11:16:45;12.17;;;8.87;;
3443;SDS011;1736;52.068;6.968;2023-01-28T11:19:14;9.70;;;7.60;;
3443;SDS011;1736;52.068;6.968;2023-01-28T11:21:46;13.87;;;8.63;;
3443;SDS011;1736;52.068;6.968;2023-01-28T11:24:14;13.33;;;8.10;;
3443;SDS011;1736;52.068;6.968;2023-01-28T11:26:47;11.83;;;8.30;;
3443;SDS011;1736;52.068;6.968;2023-01-28T11:29:22;9.60;;;7.40;;
3443;SDS011;1736;52.068;6.968;2023-01-28T11:31:52;15.10;;;10.03;;
3443;SDS011;1736;52.068;6.968;2023-01-28T11:34:23;9.57;;;7.40;;
3443;SDS011;1736;52.068;6.968;2023-01-28T11:36:52;34.57;;;20.70;;
3443;SDS011;1736;52.068;6.968;2023-01-28T11:39:21;15.00;;;10.90;;
3443;SDS011;1736;52.068;6.968;2023-01-28T11:41:50;12.03;;;8.60;;
3443;SDS011;1736;52.068;6.968;2023-01-28T11:44:19;9.93;;;7.40;;
3443;SDS011;1736;52.068;6.968;2023-01-28T11:46:54;11.77;;;8.07;;
3443;SDS011;1736;52.068;6.968;2023-01-28T11:49:33;9.60;;;7.20;;
3443;SDS011;1736;52.068;6.968;2023-01-28T11:52:14;9.63;;;7.27;;
3443;SDS011;1736;52.068;6.968;2023-01-28T11:54:52;11.27;;;7.27;;
3443;SDS011;1736;52.068;6.968;2023-01-28T11:57:25;9.70;;;7.07;;
3443;SDS011;1736;52.068;6.968;2023-01-28T12:00:01;10.60;;;7.53;;
3443;SDS011;1736;52.068;6.968;2023-01-28T12:03:02;13.00;;;7.83;;
3443;SDS011;1736;52.068;6.968;2023-01-28T12:05:48;11.37;;;8.00;;
3443;SDS011;1736;52.068;6.968;2023-01-28T12:08:20;9.93;;;7.37;;
3443;SDS011;1736;52.068;6.968;2023-01-28T12:11:03;12.83;;;7.90;;
3443;SDS011;1736;52.068;6.968;2023-01-28T12:13:47;10.27;;;7.50;;
3443;SDS011;1736;52.068;6.968;2023-01-28T12:16:27;13.37;;;7.87;;
3443;SDS011;1736;52.068;6.968;2023-01-28T12:22:09;9.40;;;7.00;;
3443;SDS011;1736;52.068;6.968;2023-01-28T12:24:48;9.20;;;6.90;;
3443;SDS011;1736;52.068;6.968;2023-01-28T12:27:31;10.50;;;6.60;;
3443;SDS011;1736;52.068;6.968;2023-01-28T12:30:10;8.37;;;6.40;;
3443;SDS011;1736;52.068;6.968;2023-01-28T12:32:49;15.27;;;9.70;;
3443;SDS011;1736;52.068;6.968;2023-01-28T12:35:34;7.63;;;6.43;;
3443;SDS011;1736;52.068;6.968;2023-01-28T12:38:17;7.87;;;5.87;;
3443;SDS011;1736;52.068;6.968;2023-01-28T12:40:54;9.60;;;7.40;;
3443;SDS011;1736;52.068;6.968;2023-01-28T12:43:32;12.50;;;7.20;;
3443;SDS011;1736;52.068;6.968;2023-01-28T12:46:09;7.33;;;5.90;;
3443;SDS011;1736;52.068;6.968;2023-01-28T12:48:41;9.53;;;6.00;;
3443;SDS011;1736;52.068;6.968;2023-01-28T12:51:13;8.67;;;5.97;;
3443;SDS011;1736;52.068;6.968;2023-01-28T12:53:45;8.93;;;5.73;;
3443;SDS011;1736;52.068;6.968;2023-01-28T12:56:15;7.30;;;5.87;;
3443;SDS011;1736;52.068;6.968;2023-01-28T12:58:44;7.43;;;5.57;;
3443;SDS011;1736;52.068;6.968;2023-01-28T13:01:15;13.20;;;6.07;;
3443;SDS011;1736;52.068;6.968;2023-01-28T13:03:48;6.40;;;4.93;;
3443;SDS011;1736;52.068;6.968;2023-01-28T13:06:21;8.03;;;5.80;;
3443;SDS011;1736;52.068;6.968;2023-01-28T13:08:57;8.10;;;6.30;;
3443;SDS011;1736;52.068;6.968;2023-01-28T13:11:30;10.13;;;6.10;;
3443;SDS011;1736;52.068;6.968;2023-01-28T13:14:00;7.13;;;5.47;;
3443;SDS011;1736;52.068;6.968;2023-01-28T13:16:27;8.30;;;6.23;;
3443;SDS011;1736;52.068;6.968;2023-01-28T13:19:03;8.90;;;6.33;;
3443;SDS011;1736;52.068;6.968;2023-01-28T13:21:31;10.57;;;6.07;;
3443;SDS011;1736;52.068;6.968;2023-01-28T13:24:04;7.90;;;6.40;;
3443;SDS011;1736;52.068;6.968;2023-01-28T13:26:44;8.80;;;6.07;;
3443;SDS011;1736;52.068;6.968;2023-01-28T13:29:17;8.87;;;6.43;;
3443;SDS011;1736;52.068;6.968;2023-01-28T13:31:47;11.13;;;8.47;;
3443;SDS011;1736;52.068;6.968;2023-01-28T13:34:25;7.97;;;6.93;;
3443;SDS011;1736;52.068;6.968;2023-01-28T13:36:58;9.87;;;7.37;;
3443;SDS011;1736;52.068;6.968;2023-01-28T13:39:30;8.30;;;5.70;;
3443;SDS011;1736;52.068;6.968;2023-01-28T13:42:18;11.07;;;8.13;;
3443;SDS011;1736;52.068;6.968;2023-01-28T13:44:47;10.20;;;8.10;;
3443;SDS011;1736;52.068;6.968;2023-01-28T13:47:18;8.87;;;7.03;;
3443;SDS011;1736;52.068;6.968;2023-01-28T13:49:49;11.07;;;7.70;;
3443;SDS011;1736;52.068;6.968;2023-01-28T13:52:22;9.23;;;6.37;;
3443;SDS011;1736;52.068;6.968;2023-01-28T13:54:54;10.27;;;7.30;;
3443;SDS011;1736;52.068;6.968;2023-01-28T14:00:29;14.67;;;8.67;;
3443;SDS011;1736;52.068;6.968;2023-01-28T14:03:13;10.10;;;7.50;;
3443;SDS011;1736;52.068;6.968;2023-01-28T14:06:21;12.60;;;8.10;;
3443;SDS011;1736;52.068;6.968;2023-01-28T14:12:11;11.73;;;7.20;;
3443;SDS011;1736;52.068;6.968;2023-01-28T14:15:07;18.20;;;10.73;;
3443;SDS011;1736;52.068;6.968;2023-01-28T14:17:41;13.57;;;9.40;;
3443;SDS011;1736;52.068;6.968;2023-01-28T14:20:13;15.63;;;9.10;;
3443;SDS011;1736;52.068;6.968;2023-01-28T14:22:43;16.63;;;10.40;;
3443;SDS011;1736;52.068;6.968;2023-01-28T14:25:11;20.20;;;9.20;;
3443;SDS011;1736;52.068;6.968;2023-01-28T14:27:42;14.97;;;9.63;;
3443;SDS011;1736;52.068;6.968;2023-01-28T14:30:15;16.47;;;9.53;;
3443;SDS011;1736;52.068;6.968;2023-01-28T14:32:45;12.83;;;8.33;;
3443;SDS011;1736;52.068;6.968;2023-01-28T14:35:15;15.90;;;10.40;;
3443;SDS011;1736;52.068;6.968;2023-01-28T14:37:45;15.87;;;9.77;;
3443;SDS011;1736;52.068;6.968;2023-01-28T14:40:12;14.80;;;9.60;;
3443;SDS011;1736;52.068;6.968;2023-01-28T14:42:43;13.30;;;8.83;;
3443;SDS011;1736;52.068;6.968;2023-01-28T14:45:15;12.93;;;8.30;;
3443;SDS011;1736;52.068;6.968;2023-01-28T14:47:54;13.43;;;8.50;;
3443;SDS011;1736;52.068;6.968;2023-01-28T14:50:36;13.03;;;9.00;;
3443;SDS011;1736;52.068;6.968;2023-01-28T14:53:22;13.80;;;8.90;;
3443;SDS011;1736;52.068;6.968;2023-01-28T14:55:58;13.77;;;8.60;;
3443;SDS011;1736;52.068;6.968;2023-01-28T14:58:36;13.90;;;8.70;;
3443;SDS011;1736;52.068;6.968;2023-01-28T15:01:16;15.13;;;9.60;;
3443;SDS011;1736;52.068;6.968;2023-01-28T15:03:46;16.03;;;10.03;;
3443;SDS011;1736;52.068;6.968;2023-01-28T15:06:13;13.17;;;8.30;;
3443;SDS011;1736;52.068;6.968;2023-01-28T15:08:41;16.10;;;11.10;;
3443;SDS011;1736;52.068;6.968;2023-01-28T15:11:08;19.67;;;13.20;;
3443;SDS011;1736;52.068;6.968;2023-01-28T15:13:40;16.70;;;11.13;;
3443;SDS011;1736;52.068;6.968;2023-01-28T15:16:12;15.50;;;11.93;;
3443;SDS011;1736;52.068;6.968;2023-01-28T15:18:43;14.13;;;9.90;;
3443;SDS011;1736;52.068;6.968;2023-01-28T15:21:10;16.17;;;10.43;;
3443;SDS011;1736;52.068;6.968;2023-01-28T15:23:37;16.40;;;10.87;;
3443;SDS011;1736;52.068;6.968;2023-01-28T15:26:06;16.63;;;9.40;;